Time;durP1;ratioP1;P1;durP2;ratioP2;P2;SDS_P1;SDS_P2;PMS_P1;PMS_P2;Temp;Humidity;BMP_temperature;BMP_pressure;BME280_temperature;BME280_humidity;BME280_pressure;Samples;Min_cycle;Max_cycle;Signal;HPM_P1;HPM_P2
2022/11/27 00:01:38;;;;;;;18.55;7.45;;;6.60;99.90;;;;;;4940015;28;20044;-88
2022/11/27 00:04:05;;;;;;;21.10;6.85;;;6.60;99.90;;;;;;4959391;28;20110;-87
2022/11/27 00:06:31;;;;;;;15.93;7.45;;;6.60;99.90;;;;;;4941726;28;20051;-88
2022/11/27 00:08:59;;;;;;;17.65;7.18;;;6.60;99.90;;;;;;4945521;28;20054;-87
2022/11/27 00:11:27;;;;;;;20.85;6.25;;;6.50;99.90;;;;;;4930397;28;20130;-88
2022/11/27 00:13:53;;;;;;;17.85;6.15;;;6.40;99.90;;;;;;4965242;28;20408;-88
2022/11/27 00:16:20;;;;;;;12.57;5.68;;;6.50;99.90;;;;;;4941665;28;20058;-87
2022/11/27 00:18:47;;;;;;;15.55;5.72;;;6.50;99.90;;;;;;4955500;28;20102;-87
2022/11/27 00:21:16;;;;;;;18.10;6.78;;;6.40;99.90;;;;;;4945478;28;20070;-89
2022/11/27 00:23:42;;;;;;;17.25;7.22;;;6.40;99.90;;;;;;4940730;28;21062;-88
2022/11/27 00:26:08;;;;;;;15.55;6.25;;;6.40;99.90;;;;;;4942508;28;20050;-87
2022/11/27 00:28:34;;;;;;;16.80;6.97;;;6.40;99.90;;;;;;4937320;28;20043;-87
2022/11/27 00:31:02;;;;;;;18.50;7.07;;;6.40;99.90;;;;;;4944567;28;20051;-87
2022/11/27 00:33:27;;;;;;;17.40;7.72;;;6.40;99.90;;;;;;4942015;28;20129;-87
2022/11/27 00:35:53;;;;;;;19.67;6.45;;;6.40;99.90;;;;;;4939096;28;20061;-87
2022/11/27 00:38:19;;;;;;;13.65;5.70;;;6.40;99.90;;;;;;4956457;28;20039;-87
2022/11/27 00:40:45;;;;;;;16.00;6.70;;;6.30;99.90;;;;;;4972284;28;20050;-86
2022/11/27 00:43:11;;;;;;;14.82;6.70;;;6.30;99.90;;;;;;4957641;28;20504;-87
2022/11/27 00:45:37;;;;;;;15.88;5.95;;;6.30;99.90;;;;;;4948773;28;20047;-88
2022/11/27 00:48:03;;;;;;;16.90;6.25;;;6.30;99.90;;;;;;4946704;28;20047;-87
2022/11/27 00:50:30;;;;;;;17.00;5.95;;;6.30;99.90;;;;;;4951197;28;20051;-87
2022/11/27 00:52:57;;;;;;;15.23;5.63;;;6.30;99.90;;;;;;4952521;28;20165;-87
2022/11/27 00:55:23;;;;;;;17.13;6.60;;;6.30;99.90;;;;;;4926873;28;20134;-87
2022/11/27 00:57:49;;;;;;;14.57;6.43;;;6.30;99.90;;;;;;4922761;28;20178;-87
2022/11/27 01:00:15;;;;;;;17.30;6.85;;;6.30;99.90;;;;;;4945516;28;20137;-87
2022/11/27 01:02:40;;;;;;;17.23;6.10;;;6.30;99.90;;;;;;4945098;28;20051;-88
2022/11/27 01:05:06;;;;;;;13.98;5.55;;;6.30;99.90;;;;;;4941695;28;20046;-86
2022/11/27 01:07:32;;;;;;;11.70;5.63;;;6.20;99.90;;;;;;4943162;28;20050;-88
2022/11/27 01:09:58;;;;;;;17.25;6.22;;;6.20;99.90;;;;;;4945750;28;20035;-87
2022/11/27 01:12:23;;;;;;;16.85;6.50;;;6.20;99.90;;;;;;4945536;28;20394;-86
2022/11/27 01:14:49;;;;;;;17.38;6.35;;;6.10;99.90;;;;;;4941621;28;20058;-87
2022/11/27 01:17:15;;;;;;;17.00;6.97;;;6.10;99.90;;;;;;4945867;28;20042;-88
2022/11/27 01:19:40;;;;;;;15.18;6.10;;;6.20;99.90;;;;;;4944709;28;20051;-86
2022/11/27 01:22:06;;;;;;;14.45;5.82;;;6.10;99.90;;;;;;4937541;29;20520;-87
2022/11/27 01:24:31;;;;;;;16.63;5.45;;;6.10;99.90;;;;;;4962747;28;20058;-86
2022/11/27 01:26:57;;;;;;;16.00;6.57;;;6.10;99.90;;;;;;4934291;28;20077;-87
2022/11/27 01:29:23;;;;;;;15.57;6.20;;;6.10;99.90;;;;;;4917522;29;20064;-87
2022/11/27 01:31:48;;;;;;;13.43;5.40;;;6.10;99.90;;;;;;4915675;29;20087;-87
2022/11/27 01:34:16;;;;;;;17.45;5.72;;;6.10;99.90;;;;;;4921961;29;20438;-87
2022/11/27 01:36:42;;;;;;;20.58;6.40;;;6.10;99.90;;;;;;4923290;29;20115;-89
2022/11/27 01:39:14;;;;;;;13.65;5.32;;;6.10;99.90;;;;;;4926882;29;20079;-87
2022/11/27 01:41:40;;;;;;;15.30;6.05;;;6.10;99.90;;;;;;4919594;29;20058;-88
2022/11/27 01:44:24;;;;;;;19.38;7.22;;;6.10;99.90;;;;;;4925210;29;20411;-87
2022/11/27 01:47:16;;;;;;;16.17;6.13;;;6.20;99.90;;;;;;4916789;29;20054;-87
2022/11/27 01:49:46;;;;;;;12.38;5.55;;;6.10;99.90;;;;;;4917106;29;20068;-87
2022/11/27 01:52:19;;;;;;;16.45;6.25;;;6.10;99.90;;;;;;4915826;29;20172;-87
2022/11/27 01:54:56;;;;;;;12.35;5.43;;;6.00;99.90;;;;;;4925487;29;20433;-88
2022/11/27 01:57:35;;;;;;;18.52;6.30;;;6.00;99.90;;;;;;4914122;29;20099;-87
2022/11/27 02:00:05;;;;;;;14.05;6.93;;;5.90;99.90;;;;;;4921771;29;20078;-88
2022/11/27 02:02:31;;;;;;;18.88;5.53;;;5.90;99.90;;;;;;4918603;29;20173;-87
2022/11/27 02:04:56;;;;;;;16.02;5.95;;;5.90;99.90;;;;;;4922175;29;20048;-87
2022/11/27 02:07:22;;;;;;;16.52;7.05;;;5.80;99.90;;;;;;4917449;29;20489;-87
2022/11/27 02:09:48;;;;;;;16.83;6.20;;;5.80;99.90;;;;;;4918631;29;20051;-86
2022/11/27 02:12:24;;;;;;;15.40;5.82;;;5.90;99.90;;;;;;4921593;29;20508;-87
2022/11/27 02:15:09;;;;;;;15.75;6.20;;;5.90;99.90;;;;;;4921995;29;20047;-87
2022/11/27 02:17:59;;;;;;;13.75;6.45;;;5.90;99.90;;;;;;4925440;29;20103;-87
2022/11/27 02:20:29;;;;;;;13.33;6.40;;;5.90;99.90;;;;;;4924577;29;20052;-87
2022/11/27 02:23:33;;;;;;;13.52;5.88;;;5.90;99.90;;;;;;4919254;29;20310;-88
2022/11/27 02:26:17;;;;;;;12.88;6.25;;;5.90;99.90;;;;;;4917584;29;20048;-88
2022/11/27 02:28:58;;;;;;;14.52;6.80;;;5.90;99.90;;;;;;4944432;28;20055;-88
2022/11/27 02:31:54;;;;;;;12.30;5.43;;;5.90;99.90;;;;;;4941493;28;20423;-86
2022/11/27 02:34:32;;;;;;;14.43;5.45;;;5.80;99.90;;;;;;4940417;28;20098;-87
2022/11/27 02:37:09;;;;;;;12.13;4.80;;;5.80;99.90;;;;;;4961859;28;20054;-87
2022/11/27 02:39:55;;;;;;;13.65;5.93;;;5.80;99.90;;;;;;4978199;28;20097;-88
2022/11/27 02:42:22;;;;;;;15.07;5.75;;;5.80;99.90;;;;;;4924299;28;20046;-87
2022/11/27 02:45:00;;;;;;;15.05;5.75;;;5.80;99.90;;;;;;4948849;28;20054;-86
2022/11/27 02:47:27;;;;;;;15.20;6.55;;;5.80;99.90;;;;;;4943194;28;20123;-87
2022/11/27 02:49:55;;;;;;;15.45;7.15;;;5.80;99.90;;;;;;4948298;28;20050;-88
2022/11/27 02:52:24;;;;;;;14.88;5.90;;;5.80;99.90;;;;;;4960919;28;20166;-88
2022/11/27 02:54:53;;;;;;;14.27;5.97;;;5.80;99.90;;;;;;4946352;28;20058;-88
2022/11/27 02:57:22;;;;;;;12.52;6.50;;;5.80;99.90;;;;;;4943180;28;20053;-88
2022/11/27 02:59:50;;;;;;;16.65;5.57;;;5.80;99.90;;;;;;4937589;28;20122;-88
2022/11/27 03:02:25;;;;;;;15.45;6.05;;;5.70;99.90;;;;;;4965984;28;20058;-87
2022/11/27 03:04:54;;;;;;;20.52;7.00;;;5.80;99.90;;;;;;4941364;28;20051;-87
2022/11/27 03:07:38;;;;;;;14.25;5.82;;;5.80;99.90;;;;;;4966837;28;20369;-87
2022/11/27 03:10:18;;;;;;;13.50;5.55;;;5.80;99.90;;;;;;4966757;28;20042;-87
2022/11/27 03:12:45;;;;;;;15.18;5.72;;;5.90;99.90;;;;;;4940452;28;20392;-88
2022/11/27 03:15:12;;;;;;;14.00;5.63;;;5.90;99.90;;;;;;4960857;28;20396;-88
2022/11/27 03:17:46;;;;;;;13.45;5.88;;;5.90;99.90;;;;;;4959298;28;20050;-88
2022/11/27 03:20:19;;;;;;;17.77;7.38;;;5.90;99.90;;;;;;4945144;28;20058;-87
2022/11/27 03:22:45;;;;;;;13.38;6.03;;;5.90;99.90;;;;;;4941999;28;20050;-88
2022/11/27 03:25:11;;;;;;;12.43;5.97;;;5.90;99.90;;;;;;4955583;28;20035;-87
2022/11/27 03:27:48;;;;;;;14.93;5.88;;;5.90;99.90;;;;;;4962263;28;20055;-88
2022/11/27 03:30:14;;;;;;;14.73;5.18;;;5.90;99.90;;;;;;4960516;28;20050;-88
2022/11/27 03:32:40;;;;;;;16.17;5.25;;;5.90;99.90;;;;;;4943001;28;20055;-88
2022/11/27 03:35:10;;;;;;;13.27;5.25;;;5.90;99.90;;;;;;4956408;28;20168;-87
2022/11/27 03:37:36;;;;;;;13.40;4.40;;;5.90;99.90;;;;;;4941155;28;20464;-88
2022/11/27 03:40:05;;;;;;;14.50;4.80;;;5.90;99.90;;;;;;4945477;28;20035;-87
2022/11/27 03:42:42;;;;;;;15.10;5.22;;;5.90;99.90;;;;;;4962784;28;20076;-88
2022/11/27 03:45:36;;;;;;;15.48;5.78;;;5.90;99.90;;;;;;4939945;28;20476;-87
2022/11/27 03:48:40;;;;;;;13.98;5.22;;;5.80;99.90;;;;;;4937597;28;20051;-86
2022/11/27 03:51:33;;;;;;;13.82;4.78;;;5.90;99.90;;;;;;4962728;28;20404;-88
2022/11/27 03:54:03;;;;;;;12.55;5.25;;;5.80;99.90;;;;;;4942841;28;20050;-88
2022/11/27 03:56:45;;;;;;;13.60;4.90;;;5.80;99.90;;;;;;4955654;28;20043;-88
2022/11/27 03:59:13;;;;;;;12.23;4.90;;;5.90;99.90;;;;;;4939392;28;21261;-87
2022/11/27 04:01:39;;;;;;;15.77;4.97;;;5.80;99.90;;;;;;4963128;28;20047;-88
2022/11/27 04:04:06;;;;;;;13.20;4.85;;;5.90;99.90;;;;;;4941522;28;20061;-87
2022/11/27 04:06:31;;;;;;;11.10;4.53;;;5.90;99.90;;;;;;4946488;28;20089;-88
2022/11/27 04:08:57;;;;;;;13.05;4.97;;;5.80;99.90;;;;;;4937373;28;20484;-87
2022/11/27 04:11:22;;;;;;;15.30;4.65;;;5.80;99.90;;;;;;4964408;28;20130;-88
2022/11/27 04:13:48;;;;;;;14.90;5.65;;;5.90;99.90;;;;;;4963325;28;20038;-88
2022/11/27 04:16:13;;;;;;;13.00;5.10;;;5.90;99.90;;;;;;4959628;28;20035;-88
2022/11/27 04:18:39;;;;;;;16.10;4.75;;;5.90;99.90;;;;;;4959187;28;20043;-87
2022/11/27 04:21:05;;;;;;;14.00;4.45;;;5.90;99.90;;;;;;4958960;28;20039;-88
2022/11/27 04:23:30;;;;;;;13.25;4.30;;;5.90;99.90;;;;;;4920216;28;20471;-88
2022/11/27 04:25:56;;;;;;;14.07;4.30;;;5.90;99.90;;;;;;4956390;28;20454;-88
2022/11/27 04:28:21;;;;;;;16.52;4.82;;;5.90;99.90;;;;;;4961713;28;20093;-88
2022/11/27 04:30:52;;;;;;;11.43;4.70;;;5.90;99.90;;;;;;4944981;28;20050;-87
2022/11/27 04:33:18;;;;;;;12.65;4.47;;;5.90;99.90;;;;;;4961041;28;20066;-88
2022/11/27 04:35:43;;;;;;;12.77;4.32;;;5.90;99.90;;;;;;4947504;28;20043;-88
2022/11/27 04:38:09;;;;;;;11.55;4.53;;;6.00;99.90;;;;;;4948008;28;20105;-88
2022/11/27 04:40:34;;;;;;;12.18;4.43;;;6.00;99.90;;;;;;4954234;28;20075;-87
2022/11/27 04:43:00;;;;;;;11.88;4.45;;;6.00;99.90;;;;;;4939741;28;20074;-88
2022/11/27 04:45:26;;;;;;;13.45;4.75;;;5.90;99.90;;;;;;4946220;28;20582;-88
2022/11/27 04:47:51;;;;;;;12.07;3.50;;;5.90;99.90;;;;;;4962221;28;20030;-87
2022/11/27 04:50:17;;;;;;;12.82;4.68;;;5.90;99.90;;;;;;4940395;28;20122;-88
2022/11/27 04:52:42;;;;;;;13.30;4.72;;;5.90;99.90;;;;;;4945154;28;20471;-87
2022/11/27 04:55:08;;;;;;;13.70;4.40;;;5.90;99.90;;;;;;4935499;28;20491;-87
2022/11/27 04:57:34;;;;;;;13.55;4.22;;;5.90;99.90;;;;;;4936240;28;20094;-87
2022/11/27 05:00:00;;;;;;;10.60;4.20;;;6.00;99.90;;;;;;4951979;28;20043;-86
2022/11/27 05:02:26;;;;;;;10.52;4.05;;;5.90;99.90;;;;;;4938300;28;20078;-87
2022/11/27 05:04:51;;;;;;;10.63;4.13;;;6.00;99.90;;;;;;4938897;28;20061;-88
2022/11/27 05:07:17;;;;;;;13.05;4.97;;;5.90;99.90;;;;;;4965567;28;20062;-88
2022/11/27 05:09:43;;;;;;;10.63;4.22;;;6.00;99.90;;;;;;4946354;28;20393;-87
2022/11/27 05:12:08;;;;;;;11.90;4.47;;;6.00;99.90;;;;;;4959088;28;20043;-86
2022/11/27 05:14:34;;;;;;;10.68;4.43;;;5.90;99.90;;;;;;4973679;28;20053;-86
2022/11/27 05:17:00;;;;;;;12.52;4.55;;;6.00;99.90;;;;;;4959245;28;20039;-87
2022/11/27 05:19:27;;;;;;;14.88;4.97;;;5.90;99.90;;;;;;4956842;28;20084;-87
2022/11/27 05:21:54;;;;;;;12.07;4.15;;;5.90;99.90;;;;;;4937205;29;20047;-87
2022/11/27 05:24:21;;;;;;;10.10;3.38;;;6.00;99.90;;;;;;4958889;28;20043;-87
2022/11/27 05:26:47;;;;;;;11.27;3.90;;;5.90;99.90;;;;;;4928298;28;20055;-88
2022/11/27 05:29:13;;;;;;;11.38;3.60;;;5.90;99.90;;;;;;4940690;28;20359;-88
2022/11/27 05:31:39;;;;;;;10.00;4.53;;;5.90;99.90;;;;;;4946167;28;20055;-86
2022/11/27 05:34:06;;;;;;;12.43;4.38;;;5.90;99.90;;;;;;4945806;28;20039;-87
2022/11/27 05:36:32;;;;;;;12.60;4.75;;;5.90;99.90;;;;;;4937947;28;20054;-87
2022/11/27 05:38:59;;;;;;;14.88;4.72;;;5.90;99.90;;;;;;4954537;28;20503;-87
2022/11/27 05:41:25;;;;;;;12.27;4.43;;;5.90;99.90;;;;;;4957830;28;20600;-87
2022/11/27 05:43:50;;;;;;;13.50;4.70;;;5.90;99.90;;;;;;4938648;28;20051;-87
2022/11/27 05:46:20;;;;;;;12.73;3.88;;;5.90;99.90;;;;;;4946239;28;20050;-88
2022/11/27 05:48:45;;;;;;;13.88;4.43;;;5.80;99.90;;;;;;4941338;28;20069;-87
2022/11/27 05:51:15;;;;;;;9.15;3.63;;;5.80;99.90;;;;;;4961878;28;20403;-87
2022/11/27 05:53:41;;;;;;;14.95;3.83;;;5.80;99.90;;;;;;4937596;28;20094;-87
2022/11/27 05:56:12;;;;;;;10.65;3.88;;;5.80;99.90;;;;;;4943797;28;20070;-88
2022/11/27 05:58:39;;;;;;;12.20;4.38;;;5.80;99.90;;;;;;4939026;28;20054;-87
2022/11/27 06:01:06;;;;;;;13.48;4.55;;;5.80;99.90;;;;;;4941437;28;20084;-87
2022/11/27 06:03:32;;;;;;;10.45;3.85;;;5.90;99.90;;;;;;4960160;28;20520;-87
2022/11/27 06:05:58;;;;;;;12.07;4.45;;;5.90;99.90;;;;;;4973985;28;20178;-88
2022/11/27 06:08:23;;;;;;;11.68;4.65;;;5.80;99.90;;;;;;4942332;28;20055;-87
2022/11/27 06:10:49;;;;;;;10.23;3.80;;;5.90;99.90;;;;;;4958283;28;20059;-88
2022/11/27 06:13:15;;;;;;;10.30;4.20;;;5.80;99.90;;;;;;4970519;28;20057;-88
2022/11/27 06:15:41;;;;;;;13.48;4.38;;;5.80;99.90;;;;;;4962166;28;20384;-88
2022/11/27 06:18:08;;;;;;;10.43;3.88;;;5.80;99.90;;;;;;4951251;28;20057;-88
2022/11/27 06:20:34;;;;;;;10.20;4.72;;;5.80;99.90;;;;;;4942911;28;20578;-88
2022/11/27 06:22:59;;;;;;;11.77;4.18;;;5.80;99.90;;;;;;4945157;28;20098;-87
2022/11/27 06:25:25;;;;;;;11.88;4.53;;;5.80;99.90;;;;;;4961830;28;20071;-88
2022/11/27 06:27:51;;;;;;;12.88;4.28;;;5.80;99.90;;;;;;4964661;28;20051;-87
2022/11/27 06:30:17;;;;;;;16.08;4.15;;;5.90;99.90;;;;;;4964893;28;20057;-87
2022/11/27 06:32:43;;;;;;;12.52;4.47;;;5.90;99.90;;;;;;4959756;28;20043;-88
2022/11/27 06:35:09;;;;;;;11.02;3.70;;;5.80;99.90;;;;;;4970001;28;20465;-87
2022/11/27 06:37:34;;;;;;;14.38;4.85;;;5.90;99.90;;;;;;4953671;28;20066;-87
2022/11/27 06:40:00;;;;;;;14.30;6.00;;;5.90;99.90;;;;;;4946372;28;20067;-87
2022/11/27 06:42:30;;;;;;;11.10;4.47;;;5.90;99.90;;;;;;4957643;28;20043;-90
2022/11/27 06:44:56;;;;;;;10.57;3.85;;;5.90;99.90;;;;;;4961713;28;20483;-89
2022/11/27 06:47:21;;;;;;;11.90;4.53;;;5.90;99.90;;;;;;4948871;28;20045;-88
2022/11/27 06:49:47;;;;;;;13.30;4.35;;;5.90;99.90;;;;;;4960153;28;20436;-89
2022/11/27 06:52:12;;;;;;;12.80;4.30;;;5.80;99.90;;;;;;4949042;28;20098;-89
2022/11/27 06:54:38;;;;;;;12.27;4.97;;;5.90;99.90;;;;;;4969644;28;20046;-85
2022/11/27 06:57:04;;;;;;;10.85;3.92;;;5.90;99.90;;;;;;4931024;28;20057;-85
2022/11/27 06:59:29;;;;;;;17.23;5.85;;;5.90;99.90;;;;;;4957729;28;20491;-85
2022/11/27 07:01:55;;;;;;;12.02;4.75;;;5.90;99.90;;;;;;4941377;28;20118;-86
2022/11/27 07:04:20;;;;;;;16.95;5.15;;;5.90;99.90;;;;;;4957808;28;20050;-84
2022/11/27 07:06:46;;;;;;;10.52;4.70;;;5.90;99.90;;;;;;4943897;29;20063;-85
2022/11/27 07:09:11;;;;;;;11.70;4.47;;;5.90;99.90;;;;;;4940746;28;20050;-86
2022/11/27 07:11:38;;;;;;;11.88;4.38;;;5.90;99.90;;;;;;4930567;28;20070;-85
2022/11/27 07:14:05;;;;;;;10.52;4.28;;;5.90;99.90;;;;;;4950377;28;20454;-85
2022/11/27 07:16:34;;;;;;;14.50;4.55;;;5.90;99.90;;;;;;4979664;28;20047;-85
2022/11/27 07:19:01;;;;;;;11.60;5.03;;;5.90;99.90;;;;;;4939626;28;20053;-84
2022/11/27 07:21:28;;;;;;;12.82;4.13;;;5.90;99.90;;;;;;4955044;28;20043;-86
2022/11/27 07:23:55;;;;;;;11.13;4.28;;;5.90;99.90;;;;;;4955299;28;20568;-85
2022/11/27 07:26:23;;;;;;;13.32;4.47;;;5.90;99.90;;;;;;4949215;28;20070;-86
2022/11/27 07:28:49;;;;;;;12.15;4.88;;;5.90;99.90;;;;;;4962620;28;20051;-86
2022/11/27 07:31:18;;;;;;;12.95;5.65;;;5.90;99.90;;;;;;4967433;28;20070;-86
2022/11/27 07:33:44;;;;;;;14.85;5.53;;;5.90;99.90;;;;;;4959670;28;20047;-85
2022/11/27 07:36:12;;;;;;;11.18;4.45;;;6.00;99.90;;;;;;4943306;28;20099;-85
2022/11/27 07:38:37;;;;;;;9.85;4.63;;;5.90;99.90;;;;;;4942815;28;20043;-84
2022/11/27 07:41:04;;;;;;;13.95;4.90;;;5.90;99.90;;;;;;4961095;28;20046;-85
2022/11/27 07:43:31;;;;;;;10.00;4.90;;;6.00;99.90;;;;;;4941721;28;20080;-85
2022/11/27 07:45:58;;;;;;;14.27;5.47;;;6.00;99.90;;;;;;4957037;28;20039;-85
2022/11/27 07:48:24;;;;;;;16.48;5.10;;;6.00;99.90;;;;;;4957894;28;20078;-84
2022/11/27 07:50:50;;;;;;;12.30;4.60;;;6.00;99.90;;;;;;4943361;28;20058;-84
2022/11/27 07:53:15;;;;;;;11.80;4.93;;;6.00;99.90;;;;;;4941987;28;20431;-85
2022/11/27 07:55:41;;;;;;;13.27;4.78;;;6.00;99.90;;;;;;4948547;28;20054;-85
2022/11/27 07:58:07;;;;;;;12.30;5.43;;;6.00;99.90;;;;;;4957442;28;20043;-85
2022/11/27 08:00:34;;;;;;;14.27;5.05;;;6.00;99.90;;;;;;4942128;28;20070;-84
2022/11/27 08:03:00;;;;;;;15.00;5.32;;;6.00;99.90;;;;;;4963330;28;20049;-85
2022/11/27 08:05:26;;;;;;;14.38;4.93;;;6.00;99.90;;;;;;4945407;28;20081;-85
2022/11/27 08:07:51;;;;;;;13.23;4.90;;;6.00;99.90;;;;;;4956106;28;20039;-84
2022/11/27 08:10:17;;;;;;;12.32;4.75;;;6.10;99.90;;;;;;4945498;28;20101;-83
2022/11/27 08:12:43;;;;;;;11.30;4.60;;;6.10;99.90;;;;;;4956834;28;20397;-85
2022/11/27 08:15:09;;;;;;;10.85;4.95;;;6.10;99.90;;;;;;4941577;28;20038;-85
2022/11/27 08:17:35;;;;;;;12.68;5.70;;;6.20;99.90;;;;;;4956659;28;20050;-86
2022/11/27 08:20:01;;;;;;;12.70;4.80;;;6.20;99.90;;;;;;4945658;28;20511;-84
2022/11/27 08:22:26;;;;;;;13.15;5.53;;;6.20;99.90;;;;;;4957642;28;20089;-84
2022/11/27 08:24:52;;;;;;;13.38;5.10;;;6.20;99.90;;;;;;4964946;28;20066;-84
2022/11/27 08:27:18;;;;;;;13.35;5.50;;;6.20;99.90;;;;;;4940854;28;20070;-84
2022/11/27 08:29:43;;;;;;;13.18;5.35;;;6.20;99.90;;;;;;4972359;28;20039;-85
2022/11/27 08:32:10;;;;;;;15.77;8.30;;;6.20;99.90;;;;;;4955736;28;20446;-86
2022/11/27 08:34:35;;;;;;;12.70;6.32;;;6.40;99.90;;;;;;4970426;28;20039;-87
2022/11/27 08:37:03;;;;;;;15.32;5.18;;;6.30;99.90;;;;;;4951054;28;20096;-86
2022/11/27 08:39:29;;;;;;;14.98;5.50;;;6.30;99.90;;;;;;4955359;28;20144;-87
2022/11/27 08:41:54;;;;;;;13.68;6.05;;;6.30;99.90;;;;;;4971109;28;20093;-86
2022/11/27 08:44:20;;;;;;;12.93;5.50;;;6.30;99.90;;;;;;4955075;28;20400;-86
2022/11/27 08:46:45;;;;;;;14.73;4.90;;;6.30;99.90;;;;;;4952537;28;20125;-91
2022/11/27 08:49:11;;;;;;;11.00;5.15;;;6.40;99.90;;;;;;4955317;28;20306;-89
2022/11/27 08:51:37;;;;;;;13.60;5.50;;;6.40;99.90;;;;;;4956620;28;20051;-91
2022/11/27 08:54:02;;;;;;;12.63;5.18;;;6.40;99.90;;;;;;4955660;28;20051;-91
2022/11/27 08:56:28;;;;;;;13.52;5.55;;;6.40;99.90;;;;;;4939972;28;20046;-91
2022/11/27 08:58:54;;;;;;;15.10;6.32;;;6.40;99.90;;;;;;4955395;28;20101;-91
2022/11/27 09:01:28;;;;;;;13.25;5.55;;;6.50;99.90;;;;;;4955963;28;20034;-91
2022/11/27 09:03:54;;;;;;;14.10;6.65;;;6.40;99.90;;;;;;4951472;29;20480;-91
2022/11/27 09:06:22;;;;;;;14.50;6.07;;;6.50;99.90;;;;;;4952383;29;20118;-89
2022/11/27 09:08:48;;;;;;;15.68;8.70;;;6.50;99.90;;;;;;4953594;29;20392;-91
2022/11/27 09:11:16;;;;;;;14.20;6.20;;;6.60;99.90;;;;;;4954191;29;20090;-91
2022/11/27 09:13:43;;;;;;;12.82;6.30;;;6.50;99.90;;;;;;4935964;29;20113;-91
2022/11/27 09:16:11;;;;;;;12.73;6.60;;;6.60;99.90;;;;;;4962574;28;20038;-90
2022/11/27 09:18:37;;;;;;;14.20;5.88;;;6.50;99.90;;;;;;4955465;28;20042;-92
2022/11/27 09:21:09;;;;;;;16.88;9.68;;;6.50;99.90;;;;;;4954850;28;20053;-91
2022/11/27 09:23:36;;;;;;;14.70;6.32;;;6.60;99.90;;;;;;4936198;29;20035;-91
2022/11/27 09:26:04;;;;;;;14.23;6.03;;;6.50;99.90;;;;;;4952888;29;20047;-91
2022/11/27 09:28:31;;;;;;;17.08;9.70;;;6.50;99.90;;;;;;4935535;29;20488;-90
2022/11/27 09:30:59;;;;;;;14.45;6.03;;;6.60;99.90;;;;;;4951749;29;20046;-91
2022/11/27 09:33:27;;;;;;;14.93;6.13;;;6.50;99.90;;;;;;4935837;29;20051;-91
2022/11/27 09:35:53;;;;;;;14.55;6.85;;;6.50;99.90;;;;;;4935472;28;20051;-90
2022/11/27 09:38:19;;;;;;;16.00;6.88;;;6.50;99.90;;;;;;4978116;28;20035;-90
2022/11/27 09:40:50;;;;;;;14.35;6.22;;;6.50;99.90;;;;;;4954906;28;20070;-91
2022/11/27 09:43:17;;;;;;;;;;;6.50;99.90;;;;;;4938674;28;20046;-90
2022/11/27 09:45:53;;;;;;;12.30;5.43;;;6.50;99.90;;;;;;4955100;28;19921;-92
2022/11/27 09:48:33;;;;;;;13.65;6.20;;;6.50;99.90;;;;;;4954884;28;20042;-91
2022/11/27 09:51:04;;;;;;;16.08;7.15;;;6.50;99.90;;;;;;4938992;28;20117;-92
2022/11/27 09:53:45;;;;;;;14.18;6.97;;;6.50;99.90;;;;;;4955639;28;20400;-91
2022/11/27 09:56:13;;;;;;;13.68;6.95;;;6.50;99.90;;;;;;4937428;28;20299;-90
2022/11/27 09:58:43;;;;;;;13.63;5.90;;;6.50;99.90;;;;;;4951051;28;20042;-92
2022/11/27 10:01:14;;;;;;;15.90;6.00;;;6.50;99.90;;;;;;4954380;28;20125;-92
2022/11/27 10:03:41;;;;;;;16.83;6.68;;;6.50;99.90;;;;;;4939419;28;20492;-92
2022/11/27 10:06:19;;;;;;;14.43;6.68;;;6.50;99.90;;;;;;4955050;28;20053;-92
2022/11/27 10:08:58;;;;;;;12.30;5.65;;;6.50;99.90;;;;;;4939541;28;20039;-93
2022/11/27 10:11:42;;;;;;;15.38;6.55;;;6.50;99.90;;;;;;4938982;28;20047;-92
2022/11/27 10:14:29;;;;;;;14.80;7.00;;;6.50;99.90;;;;;;4938226;28;20086;-92
2022/11/27 10:17:05;;;;;;;16.20;6.20;;;6.50;99.90;;;;;;4968536;28;20487;-92
2022/11/27 10:19:35;;;;;;;12.35;6.35;;;6.50;99.90;;;;;;4955230;28;20101;-92
2022/11/27 10:22:19;;;;;;;16.33;6.55;;;6.50;99.90;;;;;;4972367;28;20399;-92
2022/11/27 10:25:02;;;;;;;14.07;6.32;;;6.50;99.90;;;;;;4939243;28;20054;-92
2022/11/27 10:27:34;;;;;;;15.13;6.13;;;6.60;99.90;;;;;;4922449;29;20048;-93
2022/11/27 10:30:02;;;;;;;16.20;9.73;;;6.60;99.90;;;;;;4916867;29;20036;-93
2022/11/27 10:32:32;;;;;;;15.55;7.18;;;6.60;99.90;;;;;;4916706;29;20047;-92
2022/11/27 10:35:08;;;;;;;11.75;6.47;;;6.60;99.90;;;;;;4932275;29;20043;-92
2022/11/27 10:37:44;;;;;;;13.63;6.25;;;6.60;99.90;;;;;;4933500;29;20066;-93
2022/11/27 10:40:12;;;;;;;14.20;6.55;;;6.60;99.90;;;;;;4916612;29;20036;-92
2022/11/27 10:42:38;;;;;;;15.25;6.80;;;6.70;99.90;;;;;;4916985;29;20052;-93
2022/11/27 10:45:11;;;;;;;14.48;6.97;;;6.60;99.90;;;;;;4915936;29;20166;-92
2022/11/27 10:47:39;;;;;;;18.40;6.78;;;6.60;99.90;;;;;;4915488;29;20138;-92
2022/11/27 10:50:13;;;;;;;15.73;6.93;;;6.60;99.90;;;;;;4929650;29;20123;-92
2022/11/27 10:52:47;;;;;;;13.85;6.70;;;6.70;99.90;;;;;;4914001;29;20075;-92
2022/11/27 10:55:24;;;;;;;14.65;6.35;;;6.70;99.90;;;;;;4931645;29;20130;-93
2022/11/27 10:58:05;;;;;;;14.70;6.93;;;6.70;99.90;;;;;;4915527;29;20134;-91
2022/11/27 11:00:30;;;;;;;14.25;5.85;;;6.70;99.90;;;;;;4935688;29;20110;-92
2022/11/27 11:03:04;;;;;;;18.13;9.85;;;6.70;99.90;;;;;;4918624;29;20477;-92
2022/11/27 11:05:31;;;;;;;13.40;6.68;;;6.80;99.90;;;;;;4930419;29;20426;-90
2022/11/27 11:08:18;;;;;;;13.05;5.80;;;6.70;99.90;;;;;;4934280;29;20043;-91
2022/11/27 11:10:56;;;;;;;13.27;6.95;;;6.70;99.90;;;;;;4926811;29;20091;-89
2022/11/27 11:13:27;;;;;;;16.55;7.25;;;6.70;99.90;;;;;;4927069;29;20055;-91
2022/11/27 11:16:04;;;;;;;13.77;6.90;;;6.70;99.90;;;;;;4932632;29;20040;-92
2022/11/27 11:18:41;;;;;;;16.35;10.00;;;6.70;99.90;;;;;;4926711;29;20051;-91
2022/11/27 11:21:16;;;;;;;15.70;6.43;;;6.80;99.90;;;;;;4917995;29;20050;-91
2022/11/27 11:23:41;;;;;;;12.48;6.38;;;6.80;99.90;;;;;;4932234;29;20047;-91
2022/11/27 11:26:19;;;;;;;13.45;5.60;;;6.80;99.90;;;;;;4939029;28;20070;-91
2022/11/27 11:28:49;;;;;;;13.98;6.95;;;6.80;99.90;;;;;;4954171;28;20061;-91
2022/11/27 11:31:18;;;;;;;15.65;6.47;;;6.80;99.90;;;;;;4939532;28;20080;-91
2022/11/27 11:33:56;;;;;;;12.23;6.32;;;6.80;99.90;;;;;;4966347;28;20043;-90
2022/11/27 11:36:22;;;;;;;16.40;9.63;;;6.80;99.90;;;;;;4974538;28;20085;-91
2022/11/27 11:38:48;;;;;;;13.75;6.47;;;6.90;99.90;;;;;;4952550;28;20070;-90
2022/11/27 11:41:16;;;;;;;15.15;6.07;;;6.90;99.90;;;;;;4956343;28;20047;-92
2022/11/27 11:43:52;;;;;;;13.35;6.55;;;6.80;99.90;;;;;;4939683;28;20097;-90
2022/11/27 11:46:21;;;;;;;11.98;5.72;;;6.80;99.90;;;;;;4956382;28;20093;-90
2022/11/27 11:48:54;;;;;;;15.95;10.05;;;6.80;99.90;;;;;;4954976;28;20042;-91
2022/11/27 11:51:30;;;;;;;16.80;5.90;;;6.90;99.90;;;;;;4956255;28;20490;-92
2022/11/27 11:54:43;;;;;;;14.27;6.22;;;6.90;99.90;;;;;;4938566;28;20266;-91
2022/11/27 11:57:26;;;;;;;11.80;5.28;;;6.90;99.90;;;;;;4966255;28;20035;-91
2022/11/27 11:59:57;;;;;;;14.90;6.53;;;6.90;99.90;;;;;;4954493;28;20050;-91
2022/11/27 12:02:51;;;;;;;12.55;5.70;;;7.00;99.90;;;;;;4972910;28;20054;-91
2022/11/27 12:05:45;;;;;;;13.77;5.90;;;7.00;99.90;;;;;;4940182;28;20089;-91
2022/11/27 12:08:35;;;;;;;12.88;8.63;;;7.00;99.90;;;;;;4954602;28;20042;-92
2022/11/27 12:11:13;;;;;;;15.67;6.73;;;7.00;99.90;;;;;;4932670;28;20467;-91
2022/11/27 12:13:48;;;;;;;13.05;5.75;;;6.90;99.90;;;;;;4938920;28;20298;-92
2022/11/27 12:16:24;;;;;;;15.75;6.25;;;7.00;99.90;;;;;;4940325;28;20038;-91
2022/11/27 12:19:19;;;;;;;11.52;5.22;;;7.00;99.90;;;;;;4939169;28;20081;-92
2022/11/27 12:21:53;;;;;;;13.82;5.40;;;7.00;99.90;;;;;;4915359;29;20099;-90
2022/11/27 12:24:33;;;;;;;14.25;5.82;;;7.00;99.90;;;;;;4916387;29;20501;-93
2022/11/27 12:27:14;;;;;;;13.18;8.73;;;7.00;99.90;;;;;;4932426;29;20055;-92
2022/11/27 12:29:48;;;;;;;13.60;5.47;;;7.00;99.90;;;;;;4917126;29;20043;-92
2022/11/27 12:32:48;;;;;;;13.82;5.35;;;7.10;99.90;;;;;;4900194;29;20052;-92
2022/11/27 12:35:26;;;;;;;14.98;6.13;;;7.00;99.90;;;;;;4915434;29;20144;-93
2022/11/27 12:38:09;;;;;;;12.98;6.38;;;7.00;99.90;;;;;;4915000;29;20054;-93
2022/11/27 12:40:52;;;;;;;13.10;6.55;;;7.00;99.90;;;;;;4901410;29;20111;-92
2022/11/27 12:43:25;;;;;;;14.18;6.47;;;7.10;99.90;;;;;;4900584;29;20040;-92
2022/11/27 12:46:09;;;;;;;12.77;5.72;;;7.10;99.90;;;;;;4899646;29;20195;-93
2022/11/27 12:48:41;;;;;;;15.90;8.95;;;7.10;99.90;;;;;;4913258;29;20559;-90
2022/11/27 12:51:20;;;;;;;16.10;9.05;;;7.20;99.90;;;;;;4914635;29;20048;-91
2022/11/27 12:53:54;;;;;;;15.82;6.80;;;7.20;99.90;;;;;;4915206;29;20102;-90
2022/11/27 12:56:29;;;;;;;11.70;5.53;;;7.20;99.90;;;;;;4930806;29;20051;-90
2022/11/27 12:59:32;;;;;;;11.55;5.32;;;7.20;99.90;;;;;;4953838;28;20069;-90
2022/11/27 13:02:19;;;;;;;12.05;5.25;;;7.20;99.90;;;;;;4949466;28;20050;-90
2022/11/27 13:04:56;;;;;;;13.13;5.70;;;7.20;99.90;;;;;;4953522;28;20043;-91